createdAt,value
2018-02-09T00:00:25.294Z,39.10
2018-02-09T00:02:53.423Z,38.33
2018-02-09T00:05:23.595Z,36.50
2018-02-09T00:07:58.087Z,36.47
2018-02-09T00:10:28.033Z,38.60
2018-02-09T00:12:56.224Z,36.87
2018-02-09T00:15:27.792Z,37.67
2018-02-09T00:17:55.938Z,39.53
2018-02-09T00:20:24.063Z,38.30
2018-02-09T00:22:53.005Z,38.70
2018-02-09T00:25:21.177Z,38.03
2018-02-09T00:27:49.420Z,38.43
2018-02-09T00:30:17.571Z,39.00
2018-02-09T00:32:49.403Z,38.30
2018-02-09T00:35:18.538Z,38.10
2018-02-09T00:37:48.901Z,37.10
2018-02-09T00:40:18.252Z,35.50
2018-02-09T00:42:46.590Z,38.22
2018-02-09T00:45:14.706Z,37.90
2018-02-09T00:47:46.694Z,38.37
2018-02-09T00:50:18.358Z,40.60
2018-02-09T00:52:46.719Z,38.75
2018-02-09T00:55:21.015Z,36.00
2018-02-09T00:57:49.159Z,36.60
2018-02-09T01:00:18.310Z,38.20
2018-02-09T01:03:03.790Z,36.70
2018-02-09T01:05:31.899Z,37.83
2018-02-09T01:08:00.035Z,38.17
2018-02-09T01:10:28.264Z,38.23
2018-02-09T01:12:56.367Z,39.20
2018-02-09T01:15:25.470Z,37.23
2018-02-09T01:17:54.569Z,38.60
2018-02-09T01:20:28.580Z,36.70
2018-02-09T01:23:02.559Z,40.50
2018-02-09T01:25:31.699Z,38.00
2018-02-09T01:27:59.831Z,39.10
2018-02-09T01:30:30.808Z,37.60
2018-02-09T01:33:01.807Z,40.03
2018-02-09T01:38:23.383Z,36.20
2018-02-09T01:40:51.563Z,38.07
2018-02-09T01:43:19.789Z,41.77
2018-02-09T01:45:49.970Z,37.07
2018-02-09T01:48:18.057Z,37.30
2018-02-09T01:50:46.288Z,37.38
2018-02-09T01:53:23.127Z,38.73
2018-02-09T01:55:51.322Z,38.67
2018-02-09T01:58:29.404Z,38.97
2018-02-09T02:01:09.250Z,37.07
2018-02-09T02:03:40.096Z,39.20
2018-02-09T02:06:08.530Z,39.40
2018-02-09T02:08:37.635Z,39.80
2018-02-09T02:11:08.810Z,39.38
2018-02-09T02:13:36.992Z,38.97
2018-02-09T02:16:12.116Z,39.00
2018-02-09T02:18:40.233Z,39.87
2018-02-09T02:21:08.355Z,39.58
2018-02-09T02:23:38.461Z,39.17
2018-02-09T02:26:07.595Z,38.00
2018-02-09T02:28:36.656Z,40.28
2018-02-09T02:31:08.636Z,38.78
2018-02-09T02:33:47.954Z,39.40
2018-02-09T02:36:16.143Z,38.63
2018-02-09T02:38:46.200Z,38.13
2018-02-09T02:41:15.376Z,37.38
2018-02-09T02:44:02.401Z,38.40
2018-02-09T02:46:31.437Z,38.33
2018-02-09T02:49:03.314Z,40.58
2018-02-09T02:51:31.433Z,41.47
2018-02-09T02:53:59.553Z,39.07
2018-02-09T02:56:30.617Z,40.15
2018-02-09T02:59:03.442Z,39.55
2018-02-09T03:01:34.761Z,41.30
2018-02-09T03:04:03.858Z,41.37
2018-02-09T03:06:36.066Z,39.38
2018-02-09T03:12:03.776Z,39.70
2018-02-09T03:14:36.667Z,39.05
2018-02-09T03:17:13.236Z,39.78
2018-02-09T03:19:41.359Z,41.15
2018-02-09T03:22:09.590Z,39.50
2018-02-09T03:24:38.770Z,43.30
2018-02-09T03:27:08.854Z,41.07
2018-02-09T03:29:37.862Z,40.13
2018-02-09T03:32:07.403Z,43.00
2018-02-09T03:34:49.647Z,42.25
2018-02-09T03:37:23.473Z,43.27
2018-02-09T03:39:52.371Z,40.70
2018-02-09T03:42:23.186Z,39.17
2018-02-09T03:44:52.679Z,42.73
2018-02-09T03:47:22.589Z,40.00
2018-02-09T03:49:56.074Z,41.55
2018-02-09T03:52:30.051Z,40.10
2018-02-09T03:55:01.428Z,42.40
2018-02-09T03:57:30.069Z,41.67
2018-02-09T03:59:58.216Z,40.80
2018-02-09T04:02:27.069Z,41.08
2018-02-09T04:05:14.074Z,39.58
2018-02-09T04:07:45.203Z,43.08
2018-02-09T04:10:33.577Z,43.00
2018-02-09T04:16:13.675Z,39.30
2018-02-09T04:18:54.819Z,38.03
2018-02-09T04:21:32.231Z,38.55
2018-02-09T04:24:03.523Z,37.30
2018-02-09T04:26:31.806Z,40.80
2018-02-09T04:29:20.575Z,36.97
2018-02-09T04:31:49.659Z,38.40
2018-02-09T04:34:17.831Z,36.70
2018-02-09T04:36:52.796Z,41.15
2018-02-09T04:39:20.911Z,36.47
2018-02-09T04:42:14.206Z,38.97
2018-02-09T04:44:42.358Z,40.37
2018-02-09T04:47:10.535Z,40.30
2018-02-09T04:49:38.796Z,36.97
2018-02-09T04:52:06.950Z,38.60
2018-02-09T04:54:35.059Z,37.65
2018-02-09T04:57:07.772Z,39.40
2018-02-09T04:59:52.512Z,39.35
2018-02-09T05:02:25.045Z,40.07
2018-02-09T05:04:55.163Z,40.90
2018-02-09T05:07:25.226Z,39.30
2018-02-09T05:09:53.552Z,40.60
2018-02-09T05:12:24.327Z,41.80
2018-02-09T05:14:53.443Z,41.87
2018-02-09T05:17:34.880Z,40.30
2018-02-09T05:20:03.029Z,38.63
2018-02-09T05:22:32.173Z,37.67
2018-02-09T05:25:06.853Z,40.05
2018-02-09T05:27:35.940Z,40.38
2018-02-09T05:30:09.872Z,40.00
2018-02-09T05:32:50.368Z,38.67
2018-02-09T05:35:18.595Z,38.35
2018-02-09T05:37:46.759Z,40.60
2018-02-09T05:40:14.914Z,41.15
2018-02-09T05:45:45.564Z,40.17
2018-02-09T05:48:13.792Z,41.50
2018-02-09T05:50:41.998Z,41.17
2018-02-09T05:53:16.532Z,43.38
2018-02-09T05:55:44.656Z,42.03
2018-02-09T05:58:13.595Z,41.20
2018-02-09T06:00:41.722Z,44.03
2018-02-09T06:03:11.898Z,43.93
2018-02-09T06:05:41.781Z,42.27
2018-02-09T06:08:16.886Z,40.47
2018-02-09T06:10:45.992Z,42.20
2018-02-09T06:13:15.009Z,41.60
2018-02-09T06:15:48.942Z,44.87
2018-02-09T06:18:17.045Z,42.15
2018-02-09T06:20:45.261Z,42.85
2018-02-09T06:23:19.726Z,39.63
2018-02-09T06:25:52.359Z,40.17
2018-02-09T06:28:20.494Z,41.28
2018-02-09T06:30:48.673Z,41.47
2018-02-09T06:33:17.805Z,43.25
2018-02-09T06:36:04.390Z,46.10
2018-02-09T06:38:39.686Z,41.47
2018-02-09T06:41:09.673Z,40.92
2018-02-09T06:43:38.837Z,42.78
2018-02-09T06:46:07.114Z,44.25
2018-02-09T06:48:37.325Z,42.50
2018-02-09T06:51:05.524Z,43.10
2018-02-09T06:53:34.636Z,45.55
2018-02-09T06:56:12.510Z,42.62
2018-02-09T06:58:41.602Z,45.70
2018-02-09T07:01:09.833Z,42.47
2018-02-09T07:03:37.992Z,43.67
2018-02-09T07:06:07.090Z,46.58
2018-02-09T07:08:35.265Z,42.55
2018-02-09T07:11:03.540Z,43.47
2018-02-09T07:13:35.643Z,46.40
2018-02-09T07:16:04.617Z,45.15
2018-02-09T07:18:34.825Z,46.53
2018-02-09T07:21:03.922Z,45.40
2018-02-09T07:23:34.483Z,44.42
2018-02-09T07:26:03.824Z,46.10
2018-02-09T07:28:32.092Z,43.37
2018-02-09T07:31:04.118Z,44.50
2018-02-09T07:33:33.567Z,41.47
2018-02-09T07:36:02.058Z,46.43
2018-02-09T07:38:37.434Z,47.30
2018-02-09T07:41:10.756Z,44.83
2018-02-09T07:43:42.827Z,45.25
2018-02-09T07:46:11.117Z,47.73
2018-02-09T07:48:39.343Z,45.10
2018-02-09T07:51:08.285Z,45.50
2018-02-09T07:53:36.573Z,46.50
2018-02-09T07:56:06.327Z,46.57
2018-02-09T07:58:42.495Z,46.67
2018-02-09T08:01:11.054Z,44.87
2018-02-09T08:03:39.223Z,46.80
2018-02-09T08:06:08.412Z,46.83
2018-02-09T08:08:38.311Z,45.03
2018-02-09T08:11:06.622Z,48.10
2018-02-09T08:13:41.223Z,45.00
2018-02-09T08:16:19.253Z,45.60
2018-02-09T08:18:49.412Z,45.33
2018-02-09T08:21:17.625Z,48.58
2018-02-09T08:23:46.789Z,45.37
2018-02-09T08:26:20.539Z,47.90
2018-02-09T08:28:48.747Z,45.47
2018-02-09T08:31:17.209Z,45.77
2018-02-09T08:33:45.326Z,45.72
2018-02-09T08:36:13.537Z,46.57
2018-02-09T08:38:58.331Z,45.53
2018-02-09T08:41:32.849Z,45.27
2018-02-09T08:44:07.635Z,42.72
2018-02-09T08:46:42.421Z,45.27
2018-02-09T08:49:10.611Z,43.93
2018-02-09T08:51:40.806Z,44.80
2018-02-09T08:54:08.947Z,46.17
2018-02-09T08:56:43.102Z,40.37
2018-02-09T08:59:12.320Z,41.93
2018-02-09T09:01:41.384Z,45.50
2018-02-09T09:04:09.799Z,42.83
2018-02-09T09:06:38.824Z,41.50
2018-02-09T09:09:15.545Z,42.40
2018-02-09T09:11:45.817Z,38.83
2018-02-09T09:14:13.949Z,46.50
2018-02-09T09:19:17.065Z,41.70
2018-02-09T09:21:47.637Z,44.80
2018-02-09T09:24:15.993Z,44.20
2018-02-09T09:26:48.670Z,42.57
2018-02-09T09:29:32.249Z,44.83
2018-02-09T09:32:02.417Z,43.53
2018-02-09T09:34:30.627Z,42.10
2018-02-09T09:37:00.765Z,42.67
2018-02-09T09:39:34.766Z,41.83
2018-02-09T09:42:02.996Z,42.77
2018-02-09T09:44:31.152Z,41.90
2018-02-09T09:46:59.347Z,44.60
2018-02-09T09:49:33.231Z,41.63
2018-02-09T09:52:01.352Z,44.67
2018-02-09T09:54:29.552Z,44.90
2018-02-09T09:56:58.576Z,44.77
2018-02-09T09:59:27.614Z,45.70
2018-02-09T10:01:56.205Z,45.03
2018-02-09T10:04:27.445Z,44.77
2018-02-09T10:06:56.492Z,43.20
2018-02-09T10:09:25.825Z,45.33
2018-02-09T10:11:54.898Z,45.83
2018-02-09T10:14:23.002Z,45.20
2018-02-09T10:16:51.247Z,46.43
2018-02-09T10:19:22.956Z,42.37
2018-02-09T10:21:52.196Z,46.87
2018-02-09T10:24:21.290Z,44.87
2018-02-09T10:26:51.292Z,45.20
2018-02-09T10:29:20.420Z,47.10
2018-02-09T10:31:49.532Z,43.57
2018-02-09T10:34:22.717Z,43.90
2018-02-09T10:36:54.443Z,44.20
2018-02-09T10:39:28.296Z,47.87
2018-02-09T10:42:00.685Z,45.37
2018-02-09T10:44:30.207Z,44.20
2018-02-09T10:46:58.532Z,44.43
2018-02-09T10:52:02.800Z,44.50
2018-02-09T10:54:32.530Z,47.40
2018-02-09T10:57:06.409Z,43.63
2018-02-09T10:59:34.761Z,45.67
2018-02-09T11:02:03.898Z,43.57
2018-02-09T11:04:32.258Z,43.87
2018-02-09T11:07:03.688Z,44.57
2018-02-09T11:10:01.110Z,45.13
2018-02-09T11:12:35.005Z,44.13
2018-02-09T11:15:05.125Z,43.07
2018-02-09T11:17:33.850Z,44.90
2018-02-09T11:20:03.896Z,44.47
2018-02-09T11:22:32.123Z,43.60
2018-02-09T11:25:04.082Z,45.73
2018-02-09T11:30:27.109Z,42.63
2018-02-09T11:36:24.617Z,42.50
2018-02-09T11:38:58.924Z,43.70
2018-02-09T11:41:27.913Z,44.00
2018-02-09T11:43:58.047Z,41.60
2018-02-09T11:46:26.521Z,43.50
2018-02-09T11:48:57.485Z,43.80
2018-02-09T11:51:26.864Z,40.57
2018-02-09T11:53:55.019Z,42.33
2018-02-09T11:56:28.175Z,43.97
2018-02-09T11:58:56.497Z,42.67
2018-02-09T12:01:33.527Z,43.27
2018-02-09T12:04:01.947Z,42.77
2018-02-09T12:06:46.215Z,45.80
2018-02-09T12:09:36.616Z,40.70
2018-02-09T12:12:08.930Z,42.90
2018-02-09T12:14:37.098Z,42.20
2018-02-09T12:17:05.245Z,43.50
2018-02-09T12:22:08.622Z,42.60
2018-02-09T12:24:40.023Z,42.27
2018-02-09T12:27:09.186Z,44.93
2018-02-09T12:29:39.091Z,45.17
2018-02-09T12:37:59.351Z,42.30
2018-02-09T12:43:40.465Z,42.33
2018-02-09T14:43:14.665Z,37.70
2018-02-09T14:45:43.724Z,38.00
2018-02-09T14:48:12.847Z,39.97
2018-02-09T14:50:46.426Z,40.27
2018-02-09T14:53:15.716Z,40.87
2018-02-09T14:55:45.717Z,39.63
2018-02-09T14:58:13.935Z,39.50
2018-02-09T15:00:42.414Z,41.40
2018-02-09T15:03:17.953Z,36.43
2018-02-09T15:05:46.164Z,41.17
2018-02-09T15:08:14.255Z,42.80
2018-02-09T15:10:42.610Z,38.23
2018-02-09T15:13:11.868Z,40.07
2018-02-09T15:15:39.990Z,38.93
2018-02-09T15:18:10.039Z,38.83
2018-02-09T15:20:38.355Z,38.87
2018-02-09T15:23:10.173Z,37.97
2018-02-09T15:25:39.256Z,42.23
2018-02-09T15:28:08.321Z,39.67
2018-02-09T15:30:44.248Z,40.97
2018-02-09T15:33:13.783Z,40.13
2018-02-09T15:35:42.274Z,40.73
2018-02-09T15:38:14.288Z,42.80
2018-02-09T15:40:49.994Z,41.30
2018-02-09T15:43:18.220Z,44.13
2018-02-09T15:45:54.791Z,45.17
2018-02-09T15:48:31.468Z,43.70
2018-02-09T15:50:59.692Z,42.33
2018-02-09T15:53:28.217Z,44.20
2018-02-09T15:55:56.780Z,42.07
2018-02-09T15:58:26.138Z,44.37
2018-02-09T16:00:54.290Z,45.93
2018-02-09T16:03:22.399Z,43.80
2018-02-09T16:05:56.997Z,45.57
2018-02-09T16:08:32.752Z,44.60
2018-02-09T16:11:02.084Z,45.40
2018-02-09T16:13:33.229Z,48.53
2018-02-09T16:16:04.877Z,43.60
2018-02-09T16:18:33.070Z,45.10
2018-02-09T16:21:02.124Z,45.33
2018-02-09T16:23:30.384Z,46.87
2018-02-09T16:25:59.636Z,45.87
2018-02-09T16:28:30.472Z,47.10
2018-02-09T16:31:02.092Z,48.17
2018-02-09T16:33:34.092Z,44.17
2018-02-09T16:36:04.643Z,44.17
2018-02-09T16:38:37.139Z,46.70
2018-02-09T16:41:05.752Z,41.30
2018-02-09T16:43:34.345Z,44.40
2018-02-09T16:46:04.027Z,41.80
2018-02-09T16:48:40.060Z,43.60
2018-02-09T16:51:08.445Z,45.33
2018-02-09T16:56:22.595Z,44.60
2018-02-09T16:58:52.838Z,42.00
2018-02-09T17:01:23.619Z,40.97
2018-02-09T17:03:52.676Z,41.83
2018-02-09T17:06:22.330Z,41.80
2018-02-09T17:08:52.492Z,40.20
2018-02-09T17:11:23.093Z,41.30
2018-02-09T17:13:51.776Z,43.13
2018-02-09T17:16:19.987Z,47.50
2018-02-09T17:18:48.934Z,41.80
2018-02-09T17:21:26.459Z,42.23
2018-02-09T17:23:56.093Z,41.80
2018-02-09T17:26:24.215Z,42.10
2018-02-09T17:28:53.271Z,41.73
2018-02-09T17:31:23.280Z,43.20
2018-02-09T17:33:57.894Z,42.27
2018-02-09T17:36:26.071Z,39.57
2018-02-09T17:39:09.262Z,40.33
2018-02-09T17:41:39.459Z,39.90
2018-02-09T17:44:08.319Z,42.23
2018-02-09T17:46:38.452Z,41.90
2018-02-09T17:49:13.555Z,41.93
2018-02-09T17:52:02.991Z,42.07
2018-02-09T17:54:31.115Z,42.80
2018-02-09T17:57:01.610Z,41.13
2018-02-09T17:59:35.255Z,39.60
2018-02-09T18:02:04.178Z,41.30
2018-02-09T18:04:32.305Z,41.53
2018-02-09T18:07:00.406Z,41.10
2018-02-09T18:09:30.318Z,41.83
2018-02-09T18:12:00.504Z,41.43
2018-02-09T18:14:28.628Z,43.33
2018-02-09T18:16:56.748Z,41.00
2018-02-09T18:19:25.629Z,39.97
2018-02-09T18:21:53.807Z,43.80
2018-02-09T18:24:23.029Z,40.83
2018-02-09T18:26:54.849Z,37.73
2018-02-09T18:29:30.274Z,40.90
2018-02-09T18:32:05.469Z,41.50
2018-02-09T18:34:34.613Z,41.73
2018-02-09T18:37:04.725Z,38.73
2018-02-09T18:39:36.358Z,42.47
2018-02-09T18:42:04.534Z,41.80
2018-02-09T18:47:31.804Z,38.67
2018-02-09T18:50:02.592Z,41.20
2018-02-09T18:52:31.605Z,43.03
2018-02-09T18:54:59.788Z,41.07
2018-02-09T18:57:38.430Z,41.30
2018-02-09T19:00:21.759Z,42.80
2018-02-09T19:02:56.806Z,43.53
2018-02-09T19:05:24.921Z,39.53
2018-02-09T19:07:58.019Z,42.37
2018-02-09T19:10:28.058Z,43.07
2018-02-09T19:13:06.306Z,41.90
2018-02-09T19:15:35.638Z,43.33
2018-02-09T19:18:03.745Z,41.37
2018-02-09T19:20:37.065Z,41.83
2018-02-09T19:23:05.329Z,42.23
2018-02-09T19:25:34.213Z,42.27
2018-02-09T19:28:02.958Z,42.90
2018-02-09T19:30:31.867Z,41.40
2018-02-09T19:33:02.523Z,43.80
2018-02-09T19:35:41.692Z,42.80
2018-02-09T19:38:11.402Z,48.37
2018-02-09T19:40:52.127Z,44.50
2018-02-09T19:43:22.570Z,45.83
2018-02-09T19:45:50.741Z,46.67
2018-02-09T19:48:24.695Z,47.40
2018-02-09T19:50:54.774Z,51.10
2018-02-09T19:53:30.044Z,48.03
2018-02-09T19:55:59.059Z,50.33
2018-02-09T19:58:44.435Z,50.67
2018-02-09T20:01:14.370Z,51.60
2018-02-09T20:03:43.441Z,52.17
2018-02-09T20:06:11.582Z,48.57
2018-02-09T20:08:39.736Z,52.40
2018-02-09T20:11:07.870Z,51.70
2018-02-09T20:13:36.054Z,51.97
2018-02-09T20:16:04.271Z,50.03
2018-02-09T20:18:33.350Z,50.43
2018-02-09T20:21:05.335Z,52.47
2018-02-09T20:23:43.970Z,49.27
2018-02-09T20:26:12.108Z,49.13
2018-02-09T20:28:40.387Z,51.43
2018-02-09T20:31:12.911Z,50.93
2018-02-09T20:33:41.011Z,54.73
2018-02-09T20:36:09.339Z,54.20
2018-02-09T20:38:38.392Z,56.00
2018-02-09T20:41:25.278Z,51.87
2018-02-09T20:43:53.495Z,58.10
2018-02-09T20:46:21.746Z,56.20
2018-02-09T20:48:49.880Z,53.60
2018-02-09T20:51:24.909Z,52.97
2018-02-09T20:54:10.394Z,55.67
2018-02-09T20:56:38.552Z,58.10
2018-02-09T20:59:08.411Z,53.20
2018-02-09T21:01:37.547Z,53.20
2018-02-09T21:04:11.353Z,55.73
2018-02-09T21:06:39.495Z,55.13
2018-02-09T21:09:12.258Z,55.30
2018-02-09T21:11:41.376Z,54.00
2018-02-09T21:14:09.668Z,58.00
2018-02-09T21:16:44.382Z,55.47
2018-02-09T21:19:18.439Z,57.27
2018-02-09T21:21:49.304Z,56.90
2018-02-09T21:24:18.339Z,57.93
2018-02-09T21:26:48.220Z,55.53
2018-02-09T21:29:16.394Z,56.40
2018-02-09T21:31:46.562Z,56.70
2018-02-09T21:34:19.288Z,55.13
2018-02-09T21:36:52.650Z,56.33
2018-02-09T21:39:31.493Z,57.33
2018-02-09T21:42:10.112Z,60.43
2018-02-09T21:44:40.000Z,58.33
2018-02-09T21:50:14.922Z,59.23
2018-02-09T21:52:43.111Z,59.53
2018-02-09T21:55:11.984Z,57.30
2018-02-09T21:57:40.300Z,60.50
2018-02-09T22:00:15.198Z,58.30
2018-02-09T22:02:43.358Z,59.97
2018-02-09T22:05:13.455Z,58.60
2018-02-09T22:07:56.940Z,59.50
2018-02-09T22:10:25.058Z,62.40
2018-02-09T22:13:04.862Z,63.93
2018-02-09T22:15:41.635Z,61.00
2018-02-09T22:18:09.769Z,61.77
2018-02-09T22:20:45.125Z,58.77
2018-02-09T22:23:13.416Z,58.70
2018-02-09T22:28:37.789Z,64.30
2018-02-09T22:31:05.894Z,62.57
2018-02-09T22:33:44.686Z,68.23
2018-02-09T22:36:13.004Z,61.73
2018-02-09T22:38:41.874Z,62.70
2018-02-09T22:41:09.991Z,62.57
2018-02-09T22:43:45.000Z,66.63
2018-02-09T22:46:14.118Z,65.10
2018-02-09T22:48:42.255Z,61.97
2018-02-09T22:51:12.397Z,62.67
2018-02-09T22:53:42.605Z,63.60
2018-02-09T22:56:10.738Z,63.73
2018-02-09T22:58:41.065Z,64.33
2018-02-09T23:01:12.850Z,68.13
2018-02-09T23:03:41.934Z,61.77
2018-02-09T23:06:13.924Z,63.90
2018-02-09T23:08:42.044Z,62.70
2018-02-09T23:11:31.315Z,61.37
2018-02-09T23:14:02.420Z,61.43
2018-02-09T23:16:34.700Z,65.00
2018-02-09T23:19:02.807Z,65.87
2018-02-09T23:21:34.251Z,60.43
2018-02-09T23:24:02.360Z,65.33
2018-02-09T23:26:34.414Z,62.90
2018-02-09T23:29:14.318Z,64.10
2018-02-09T23:31:43.506Z,66.07
2018-02-09T23:34:11.614Z,63.53
2018-02-09T23:36:40.728Z,61.30
2018-02-09T23:39:09.908Z,61.80
2018-02-09T23:41:50.907Z,67.93
2018-02-09T23:44:22.454Z,65.00
2018-02-09T23:46:57.975Z,64.33
2018-02-09T23:49:32.727Z,62.60
2018-02-09T23:52:00.922Z,61.43
2018-02-09T23:54:30.083Z,63.97
2018-02-09T23:56:58.233Z,63.00
2018-02-09T23:59:32.594Z,67.30
